• Join FlightAware (Why Join?)
  • Login
  • US Flag 
12:40AM EDT


 

Airport Tracker/Info


-or-


 

Live Flight TrackerFlight Track Log ✈ SLI2111 ✈ 01-Jul-2013 ✈ MMCL / CUL - MMMY / MTY

Flight Track Log - Related Links

Times and Time Zones

All times are in EDT time to prevent confusion due to time zone crossing. See the SLI2111 flight status page for this flight to view local times or setup timezone preferences in your user account.

Time Position Orientation Groundspeed Altitude Reporting Facility
EDT Latitude Longitude Course Direction KTS MPH feet Rate Location/Type
11:16AM 24.8304 -107.0688 80° East  Level Estimated
11:17AM 24.8467 -106.9673 80° East  Level Estimated
11:18AM 24.8629 -106.8657 80° East  Level Estimated
11:19AM 24.8790 -106.7642 80° East  Level Estimated
11:20AM 24.8951 -106.6625 80° East  Level Estimated
11:21AM 24.9111 -106.5609 80° East  Level Estimated
11:22AM 24.9271 -106.4592 80° East  Level Estimated
11:23AM 24.9429 -106.3575 80° East  Level Estimated
11:24AM 24.9587 -106.2558 80° East  Level Estimated
11:25AM 24.9745 -106.1541 80° East  Level Estimated
11:26AM 24.9902 -106.0523 80° East  Level Estimated
11:27AM 25.0058 -105.9505 80° East  Level Estimated
11:28AM 25.0213 -105.8486 80° East  Level Estimated
11:29AM 25.0368 -105.7468 80° East  Level Estimated
11:30AM 25.0521 -105.6449 81° East  Level Estimated
11:31AM 25.0675 -105.5430 81° East  Level Estimated
11:32AM 25.0827 -105.4411 81° East  Level Estimated
11:33AM 25.0979 -105.3391 81° East  Level Estimated
11:34AM 25.1130 -105.2372 81° East  Level Estimated
11:35AM 25.1280 -105.1352 81° East  Level Estimated
11:36AM 25.1430 -105.0331 81° East  Level Estimated
11:37AM 25.1579 -104.9311 81° East  Level Estimated
11:38AM 25.1727 -104.8290 81° East  Level Estimated
11:39AM 25.1875 -104.7269 81° East  Level Estimated
11:40AM 25.2022 -104.6248 81° East  Level Estimated
11:41AM 25.2168 -104.5226 81° East  Level Estimated
11:42AM 25.2314 -104.4204 81° East  Level Estimated
11:43AM 25.2458 -104.3182 81° East  Level Estimated
11:44AM 25.2603 -104.2160 81° East  Level Estimated
11:45AM 25.2746 -104.1138 81° East  Level Estimated
11:46AM 25.2889 -104.0115 81° East  Level Estimated
11:47AM 25.3031 -103.9092 81° East  Level Estimated
11:48AM 25.3172 -103.8069 81° East  Level Estimated
11:49AM 25.3312 -103.7045 81° East  Level Estimated
11:50AM 25.3452 -103.6021 81° East  Level Estimated
11:51AM 25.3592 -103.4998 81° East  Level Estimated
11:52AM 25.3730 -103.3973 81° East  Level Estimated
11:53AM 25.3868 -103.2949 82° East  Level Estimated
11:54AM 25.4005 -103.1924 82° East  Level Estimated
11:55AM 25.4141 -103.0900 82° East  Level Estimated
11:56AM 25.4277 -102.9874 82° East  Level Estimated
11:57AM 25.4412 -102.8849 82° East  Level Estimated
11:58AM 25.4546 -102.7823 82° East  Level Estimated
11:59AM 25.4679 -102.6798 82° East  Level Estimated
12:00PM 25.4812 -102.5772 82° East  Level Estimated
12:01PM 25.4944 -102.4745 82° East  Level Estimated
12:02PM 25.5076 -102.3719 82° East  Level Estimated
12:03PM 25.5206 -102.2692 82° East  Level Estimated
12:04PM 25.5336 -102.1665 82° East  Level Estimated
12:05PM 25.5465 -102.0638 82° East  Level Estimated
12:06PM 25.5594 -101.9611 82° East  Level Estimated
12:07PM 25.5722 -101.8583 82° East  Level Estimated
12:08PM 25.5849 -101.7555 82° East  Level Estimated
12:09PM 25.5975 -101.6527 82° East  Level Estimated
12:10PM 25.6101 -101.5499 82° East  Level Estimated
12:11PM 25.6225 -101.4471 82° East  Level Estimated
12:12PM 25.6350 -101.3442 82° East  Level Estimated
12:13PM 25.6473 -101.2413 82° East  Level Estimated
12:14PM 25.6596 -101.1384 82° East  Level Estimated
12:15PM 25.6718 -101.0355 82° East  Level Estimated
12:16PM 25.6839 -100.9325 83° East  Level Estimated
12:17PM 25.6960 -100.8296 83° East  Level Estimated
12:18PM 25.7080 -100.7266 83° East  Level Estimated
12:19PM 25.7199 -100.6236 83° East  Level Estimated
12:20PM 25.7317 -100.5205 83° East  Level Estimated
12:21PM 25.7435 -100.4175 83° East  Level Estimated
12:22PM 25.7552 -100.3144 83° East  Level Estimated
12:23PM 25.7668 -100.2113 83° East  Level Estimated
12:24PM 25.7783 -100.1082 83° East  Level Estimated
12:25PM 25.7785 -100.1069 83° East  Level Estimated
12:26PM 25.7785 -100.1069 119° Southeast  Level Estimated